sensor_id;sensor_type;location;lat;lon;timestamp;P1;durP1;ratioP1;P2;durP2;ratioP2
6089;SDS011;3073;42.660;23.316;2023-06-22T00:02:04;27.97;;;14.90;;
6089;SDS011;3073;42.660;23.316;2023-06-22T00:04:30;19.00;;;14.10;;
6089;SDS011;3073;42.660;23.316;2023-06-22T00:06:57;21.07;;;14.73;;
6089;SDS011;3073;42.660;23.316;2023-06-22T00:09:25;24.50;;;14.03;;
6089;SDS011;3073;42.660;23.316;2023-06-22T00:11:52;19.93;;;13.60;;
6089;SDS011;3073;42.660;23.316;2023-06-22T00:14:19;22.43;;;15.83;;
6089;SDS011;3073;42.660;23.316;2023-06-22T00:16:46;20.13;;;13.80;;
6089;SDS011;3073;42.660;23.316;2023-06-22T00:19:13;20.50;;;14.03;;
6089;SDS011;3073;42.660;23.316;2023-06-22T00:21:40;22.33;;;14.60;;
6089;SDS011;3073;42.660;23.316;2023-06-22T00:24:08;20.17;;;14.47;;
6089;SDS011;3073;42.660;23.316;2023-06-22T00:26:36;22.80;;;13.30;;
6089;SDS011;3073;42.660;23.316;2023-06-22T00:29:03;22.30;;;14.30;;
6089;SDS011;3073;42.660;23.316;2023-06-22T00:31:29;21.23;;;13.57;;
6089;SDS011;3073;42.660;23.316;2023-06-22T00:33:56;23.20;;;15.23;;
6089;SDS011;3073;42.660;23.316;2023-06-22T00:36:23;22.23;;;15.03;;
6089;SDS011;3073;42.660;23.316;2023-06-22T00:38:50;21.43;;;15.50;;
6089;SDS011;3073;42.660;23.316;2023-06-22T00:41:17;23.20;;;15.27;;
6089;SDS011;3073;42.660;23.316;2023-06-22T00:43:46;22.73;;;15.83;;
6089;SDS011;3073;42.660;23.316;2023-06-22T00:46:12;24.43;;;16.80;;
6089;SDS011;3073;42.660;23.316;2023-06-22T00:48:41;26.60;;;15.13;;
6089;SDS011;3073;42.660;23.316;2023-06-22T00:51:09;22.90;;;17.50;;
6089;SDS011;3073;42.660;23.316;2023-06-22T00:53:38;24.13;;;15.67;;
6089;SDS011;3073;42.660;23.316;2023-06-22T00:56:06;24.63;;;14.50;;
6089;SDS011;3073;42.660;23.316;2023-06-22T00:58:35;22.87;;;14.70;;
6089;SDS011;3073;42.660;23.316;2023-06-22T01:01:04;21.30;;;14.90;;
6089;SDS011;3073;42.660;23.316;2023-06-22T01:03:32;23.93;;;15.30;;
6089;SDS011;3073;42.660;23.316;2023-06-22T01:06:02;24.43;;;13.83;;
6089;SDS011;3073;42.660;23.316;2023-06-22T01:08:36;24.23;;;14.80;;
6089;SDS011;3073;42.660;23.316;2023-06-22T01:11:17;21.73;;;14.77;;
6089;SDS011;3073;42.660;23.316;2023-06-22T01:13:50;20.80;;;14.10;;
6089;SDS011;3073;42.660;23.316;2023-06-22T01:16:26;23.60;;;16.20;;
6089;SDS011;3073;42.660;23.316;2023-06-22T01:18:57;26.43;;;15.50;;
6089;SDS011;3073;42.660;23.316;2023-06-22T01:21:28;25.43;;;15.40;;
6089;SDS011;3073;42.660;23.316;2023-06-22T01:24:01;21.50;;;15.80;;
6089;SDS011;3073;42.660;23.316;2023-06-22T01:26:38;25.63;;;16.73;;
6089;SDS011;3073;42.660;23.316;2023-06-22T01:29:11;26.13;;;17.03;;
6089;SDS011;3073;42.660;23.316;2023-06-22T01:31:40;26.77;;;16.40;;
6089;SDS011;3073;42.660;23.316;2023-06-22T01:34:10;23.47;;;16.90;;
6089;SDS011;3073;42.660;23.316;2023-06-22T01:36:37;26.93;;;17.67;;
6089;SDS011;3073;42.660;23.316;2023-06-22T01:39:06;27.33;;;18.33;;
6089;SDS011;3073;42.660;23.316;2023-06-22T01:41:34;23.57;;;15.33;;
6089;SDS011;3073;42.660;23.316;2023-06-22T01:44:04;20.27;;;14.10;;
6089;SDS011;3073;42.660;23.316;2023-06-22T01:46:33;24.60;;;15.10;;
6089;SDS011;3073;42.660;23.316;2023-06-22T01:49:01;27.40;;;16.43;;
6089;SDS011;3073;42.660;23.316;2023-06-22T01:51:28;25.10;;;16.50;;
6089;SDS011;3073;42.660;23.316;2023-06-22T01:53:55;26.73;;;15.63;;
6089;SDS011;3073;42.660;23.316;2023-06-22T01:56:22;26.07;;;16.53;;
6089;SDS011;3073;42.660;23.316;2023-06-22T01:58:50;26.17;;;15.50;;
6089;SDS011;3073;42.660;23.316;2023-06-22T02:01:24;26.40;;;17.20;;
6089;SDS011;3073;42.660;23.316;2023-06-22T02:03:59;24.13;;;16.20;;
6089;SDS011;3073;42.660;23.316;2023-06-22T02:06:33;23.20;;;14.80;;
6089;SDS011;3073;42.660;23.316;2023-06-22T02:09:06;27.77;;;14.93;;
6089;SDS011;3073;42.660;23.316;2023-06-22T02:11:35;26.60;;;16.40;;
6089;SDS011;3073;42.660;23.316;2023-06-22T02:14:03;35.10;;;17.77;;
6089;SDS011;3073;42.660;23.316;2023-06-22T02:16:32;24.43;;;15.80;;
6089;SDS011;3073;42.660;23.316;2023-06-22T02:19:00;28.50;;;16.93;;
6089;SDS011;3073;42.660;23.316;2023-06-22T02:21:29;26.37;;;17.00;;
6089;SDS011;3073;42.660;23.316;2023-06-22T02:23:57;27.73;;;16.40;;
6089;SDS011;3073;42.660;23.316;2023-06-22T02:26:23;27.57;;;16.27;;
6089;SDS011;3073;42.660;23.316;2023-06-22T02:28:52;25.77;;;15.30;;
6089;SDS011;3073;42.660;23.316;2023-06-22T02:31:19;30.53;;;18.50;;
6089;SDS011;3073;42.660;23.316;2023-06-22T02:33:46;27.60;;;17.50;;
6089;SDS011;3073;42.660;23.316;2023-06-22T02:36:15;29.40;;;18.17;;
6089;SDS011;3073;42.660;23.316;2023-06-22T02:38:42;28.70;;;17.60;;
6089;SDS011;3073;42.660;23.316;2023-06-22T02:41:13;33.43;;;17.73;;
6089;SDS011;3073;42.660;23.316;2023-06-22T02:43:43;28.03;;;15.00;;
6089;SDS011;3073;42.660;23.316;2023-06-22T02:46:11;26.03;;;15.90;;
6089;SDS011;3073;42.660;23.316;2023-06-22T02:48:38;23.40;;;14.20;;
6089;SDS011;3073;42.660;23.316;2023-06-22T02:51:05;31.17;;;15.80;;
6089;SDS011;3073;42.660;23.316;2023-06-22T02:53:34;26.57;;;15.03;;
6089;SDS011;3073;42.660;23.316;2023-06-22T02:56:01;28.03;;;15.20;;
6089;SDS011;3073;42.660;23.316;2023-06-22T02:58:30;28.80;;;15.07;;
6089;SDS011;3073;42.660;23.316;2023-06-22T03:01:03;29.20;;;14.83;;
6089;SDS011;3073;42.660;23.316;2023-06-22T03:03:31;27.40;;;14.70;;
6089;SDS011;3073;42.660;23.316;2023-06-22T03:05:57;25.17;;;15.43;;
6089;SDS011;3073;42.660;23.316;2023-06-22T03:08:26;25.47;;;15.37;;
6089;SDS011;3073;42.660;23.316;2023-06-22T03:10:55;27.33;;;14.50;;
6089;SDS011;3073;42.660;23.316;2023-06-22T03:13:22;26.53;;;15.73;;
6089;SDS011;3073;42.660;23.316;2023-06-22T03:15:49;25.63;;;14.87;;
6089;SDS011;3073;42.660;23.316;2023-06-22T03:18:16;29.83;;;15.30;;
6089;SDS011;3073;42.660;23.316;2023-06-22T03:20:42;24.70;;;13.33;;
6089;SDS011;3073;42.660;23.316;2023-06-22T03:23:09;27.80;;;16.50;;
6089;SDS011;3073;42.660;23.316;2023-06-22T03:25:36;28.07;;;17.13;;
6089;SDS011;3073;42.660;23.316;2023-06-22T03:28:04;30.00;;;17.83;;
6089;SDS011;3073;42.660;23.316;2023-06-22T03:30:31;24.47;;;14.80;;
6089;SDS011;3073;42.660;23.316;2023-06-22T03:32:58;32.03;;;16.00;;
6089;SDS011;3073;42.660;23.316;2023-06-22T03:35:25;26.80;;;16.20;;
6089;SDS011;3073;42.660;23.316;2023-06-22T03:37:51;30.93;;;14.43;;
6089;SDS011;3073;42.660;23.316;2023-06-22T03:40:18;24.33;;;14.90;;
6089;SDS011;3073;42.660;23.316;2023-06-22T03:42:45;22.10;;;14.70;;
6089;SDS011;3073;42.660;23.316;2023-06-22T03:45:14;22.53;;;15.33;;
6089;SDS011;3073;42.660;23.316;2023-06-22T03:47:41;25.93;;;14.83;;
6089;SDS011;3073;42.660;23.316;2023-06-22T03:50:08;29.83;;;14.60;;
6089;SDS011;3073;42.660;23.316;2023-06-22T03:52:35;20.67;;;13.83;;
6089;SDS011;3073;42.660;23.316;2023-06-22T03:55:01;25.97;;;16.17;;
6089;SDS011;3073;42.660;23.316;2023-06-22T03:57:28;29.53;;;16.80;;
6089;SDS011;3073;42.660;23.316;2023-06-22T03:59:56;27.43;;;16.90;;
6089;SDS011;3073;42.660;23.316;2023-06-22T04:02:24;28.97;;;16.47;;
6089;SDS011;3073;42.660;23.316;2023-06-22T04:04:51;28.20;;;15.30;;
6089;SDS011;3073;42.660;23.316;2023-06-22T04:07:18;31.17;;;17.17;;
6089;SDS011;3073;42.660;23.316;2023-06-22T04:09:45;22.63;;;16.00;;
6089;SDS011;3073;42.660;23.316;2023-06-22T04:12:12;32.60;;;17.77;;
6089;SDS011;3073;42.660;23.316;2023-06-22T04:14:39;26.67;;;16.10;;
6089;SDS011;3073;42.660;23.316;2023-06-22T04:17:06;33.47;;;18.67;;
6089;SDS011;3073;42.660;23.316;2023-06-22T04:19:34;32.83;;;18.03;;
6089;SDS011;3073;42.660;23.316;2023-06-22T04:22:01;29.60;;;15.93;;
6089;SDS011;3073;42.660;23.316;2023-06-22T04:24:28;32.43;;;20.20;;
6089;SDS011;3073;42.660;23.316;2023-06-22T04:26:55;32.23;;;18.20;;
6089;SDS011;3073;42.660;23.316;2023-06-22T04:29:21;31.10;;;18.83;;
6089;SDS011;3073;42.660;23.316;2023-06-22T04:31:53;30.53;;;17.60;;
6089;SDS011;3073;42.660;23.316;2023-06-22T04:34:22;29.77;;;17.13;;
6089;SDS011;3073;42.660;23.316;2023-06-22T04:36:52;27.10;;;17.13;;
6089;SDS011;3073;42.660;23.316;2023-06-22T04:39:20;31.50;;;17.50;;
6089;SDS011;3073;42.660;23.316;2023-06-22T04:41:47;28.43;;;18.90;;
6089;SDS011;3073;42.660;23.316;2023-06-22T04:44:14;26.50;;;16.67;;
6089;SDS011;3073;42.660;23.316;2023-06-22T04:46:49;25.03;;;14.70;;
6089;SDS011;3073;42.660;23.316;2023-06-22T04:49:19;32.43;;;16.00;;
6089;SDS011;3073;42.660;23.316;2023-06-22T04:51:47;28.47;;;16.83;;
6089;SDS011;3073;42.660;23.316;2023-06-22T04:54:18;26.43;;;16.97;;
6089;SDS011;3073;42.660;23.316;2023-06-22T04:56:45;29.00;;;16.63;;
6089;SDS011;3073;42.660;23.316;2023-06-22T04:59:13;22.33;;;15.80;;
6089;SDS011;3073;42.660;23.316;2023-06-22T05:01:39;25.47;;;16.07;;
6089;SDS011;3073;42.660;23.316;2023-06-22T05:04:06;26.30;;;16.80;;
6089;SDS011;3073;42.660;23.316;2023-06-22T05:06:34;24.63;;;15.80;;
6089;SDS011;3073;42.660;23.316;2023-06-22T05:09:01;26.27;;;16.10;;
6089;SDS011;3073;42.660;23.316;2023-06-22T05:11:31;24.53;;;15.10;;
6089;SDS011;3073;42.660;23.316;2023-06-22T05:13:58;22.40;;;15.10;;
6089;SDS011;3073;42.660;23.316;2023-06-22T05:16:25;24.40;;;15.13;;
6089;SDS011;3073;42.660;23.316;2023-06-22T05:18:52;24.00;;;16.33;;
6089;SDS011;3073;42.660;23.316;2023-06-22T05:21:23;27.30;;;16.57;;
6089;SDS011;3073;42.660;23.316;2023-06-22T05:23:51;25.30;;;15.17;;
6089;SDS011;3073;42.660;23.316;2023-06-22T05:26:19;23.13;;;15.93;;
6089;SDS011;3073;42.660;23.316;2023-06-22T05:28:47;20.10;;;13.90;;
6089;SDS011;3073;42.660;23.316;2023-06-22T05:31:14;22.67;;;14.80;;
6089;SDS011;3073;42.660;23.316;2023-06-22T05:33:42;23.53;;;13.87;;
6089;SDS011;3073;42.660;23.316;2023-06-22T05:36:10;21.33;;;13.30;;
6089;SDS011;3073;42.660;23.316;2023-06-22T05:38:37;26.47;;;14.93;;
6089;SDS011;3073;42.660;23.316;2023-06-22T05:41:05;21.37;;;13.80;;
6089;SDS011;3073;42.660;23.316;2023-06-22T05:43:32;22.50;;;14.80;;
6089;SDS011;3073;42.660;23.316;2023-06-22T05:46:00;26.13;;;14.40;;
6089;SDS011;3073;42.660;23.316;2023-06-22T05:48:28;18.40;;;13.83;;
6089;SDS011;3073;42.660;23.316;2023-06-22T05:50:55;27.27;;;13.97;;
6089;SDS011;3073;42.660;23.316;2023-06-22T05:53:22;23.40;;;14.57;;
6089;SDS011;3073;42.660;23.316;2023-06-22T05:55:49;23.80;;;15.40;;
6089;SDS011;3073;42.660;23.316;2023-06-22T05:58:16;15.13;;;12.20;;
6089;SDS011;3073;42.660;23.316;2023-06-22T06:00:43;21.30;;;13.50;;
6089;SDS011;3073;42.660;23.316;2023-06-22T06:03:11;19.23;;;14.73;;
6089;SDS011;3073;42.660;23.316;2023-06-22T06:05:42;21.67;;;14.37;;
6089;SDS011;3073;42.660;23.316;2023-06-22T06:08:09;23.60;;;15.10;;
6089;SDS011;3073;42.660;23.316;2023-06-22T06:10:37;20.20;;;14.37;;
6089;SDS011;3073;42.660;23.316;2023-06-22T06:13:04;19.40;;;13.63;;
6089;SDS011;3073;42.660;23.316;2023-06-22T06:15:31;23.43;;;15.57;;
6089;SDS011;3073;42.660;23.316;2023-06-22T06:17:58;20.30;;;14.47;;
6089;SDS011;3073;42.660;23.316;2023-06-22T06:20:26;19.47;;;14.50;;
6089;SDS011;3073;42.660;23.316;2023-06-22T06:22:54;19.60;;;12.53;;
6089;SDS011;3073;42.660;23.316;2023-06-22T06:25:21;15.00;;;12.30;;
6089;SDS011;3073;42.660;23.316;2023-06-22T06:27:49;15.70;;;12.53;;
6089;SDS011;3073;42.660;23.316;2023-06-22T06:30:20;14.30;;;11.10;;
6089;SDS011;3073;42.660;23.316;2023-06-22T06:32:47;19.65;;;11.73;;
6089;SDS011;3073;42.660;23.316;2023-06-22T06:35:14;18.33;;;12.25;;
6089;SDS011;3073;42.660;23.316;2023-06-22T06:37:44;16.65;;;12.30;;
6089;SDS011;3073;42.660;23.316;2023-06-22T06:40:12;20.30;;;11.18;;
6089;SDS011;3073;42.660;23.316;2023-06-22T06:42:40;13.32;;;10.75;;
6089;SDS011;3073;42.660;23.316;2023-06-22T06:45:10;12.75;;;11.27;;
6089;SDS011;3073;42.660;23.316;2023-06-22T06:47:37;12.95;;;11.15;;
6089;SDS011;3073;42.660;23.316;2023-06-22T06:50:05;15.35;;;12.27;;
6089;SDS011;3073;42.660;23.316;2023-06-22T06:52:33;15.93;;;12.30;;
6089;SDS011;3073;42.660;23.316;2023-06-22T06:55:01;17.63;;;13.38;;
6089;SDS011;3073;42.660;23.316;2023-06-22T06:57:29;15.32;;;10.70;;
6089;SDS011;3073;42.660;23.316;2023-06-22T06:59:57;14.35;;;11.82;;
6089;SDS011;3073;42.660;23.316;2023-06-22T07:02:25;13.98;;;11.25;;
6089;SDS011;3073;42.660;23.316;2023-06-22T07:04:53;14.95;;;12.05;;
6089;SDS011;3073;42.660;23.316;2023-06-22T07:07:21;16.33;;;11.35;;
6089;SDS011;3073;42.660;23.316;2023-06-22T07:09:48;15.95;;;11.95;;
6089;SDS011;3073;42.660;23.316;2023-06-22T07:12:16;15.98;;;11.55;;
6089;SDS011;3073;42.660;23.316;2023-06-22T07:14:43;12.50;;;10.93;;
6089;SDS011;3073;42.660;23.316;2023-06-22T07:17:09;14.48;;;10.77;;
6089;SDS011;3073;42.660;23.316;2023-06-22T07:19:36;14.38;;;11.45;;
6089;SDS011;3073;42.660;23.316;2023-06-22T07:22:04;14.57;;;10.75;;
6089;SDS011;3073;42.660;23.316;2023-06-22T07:24:31;12.27;;;9.85;;
6089;SDS011;3073;42.660;23.316;2023-06-22T07:26:58;13.43;;;10.85;;
6089;SDS011;3073;42.660;23.316;2023-06-22T07:29:26;19.17;;;8.98;;
6089;SDS011;3073;42.660;23.316;2023-06-22T07:31:53;14.40;;;10.98;;
6089;SDS011;3073;42.660;23.316;2023-06-22T07:34:21;18.15;;;10.38;;
6089;SDS011;3073;42.660;23.316;2023-06-22T07:36:48;10.02;;;8.50;;
6089;SDS011;3073;42.660;23.316;2023-06-22T07:39:15;15.07;;;10.10;;
6089;SDS011;3073;42.660;23.316;2023-06-22T07:41:42;12.77;;;10.13;;
6089;SDS011;3073;42.660;23.316;2023-06-22T07:44:08;13.57;;;9.20;;
6089;SDS011;3073;42.660;23.316;2023-06-22T07:46:37;23.70;;;10.60;;
6089;SDS011;3073;42.660;23.316;2023-06-22T07:49:03;20.00;;;10.95;;
6089;SDS011;3073;42.660;23.316;2023-06-22T07:51:30;14.10;;;10.10;;
6089;SDS011;3073;42.660;23.316;2023-06-22T07:53:57;11.80;;;9.50;;
6089;SDS011;3073;42.660;23.316;2023-06-22T07:56:24;15.65;;;10.73;;
6089;SDS011;3073;42.660;23.316;2023-06-22T07:58:51;11.82;;;9.82;;
6089;SDS011;3073;42.660;23.316;2023-06-22T08:01:18;15.23;;;11.20;;
6089;SDS011;3073;42.660;23.316;2023-06-22T08:03:48;16.60;;;11.13;;
6089;SDS011;3073;42.660;23.316;2023-06-22T08:06:14;13.50;;;10.10;;
6089;SDS011;3073;42.660;23.316;2023-06-22T08:08:41;24.40;;;12.25;;
6089;SDS011;3073;42.660;23.316;2023-06-22T08:11:08;13.48;;;10.85;;
6089;SDS011;3073;42.660;23.316;2023-06-22T08:13:35;14.02;;;11.05;;
6089;SDS011;3073;42.660;23.316;2023-06-22T08:16:02;14.80;;;10.45;;
6089;SDS011;3073;42.660;23.316;2023-06-22T08:18:30;14.90;;;11.45;;
6089;SDS011;3073;42.660;23.316;2023-06-22T08:20:58;14.13;;;11.18;;
6089;SDS011;3073;42.660;23.316;2023-06-22T08:23:25;17.25;;;11.05;;
6089;SDS011;3073;42.660;23.316;2023-06-22T08:25:51;12.32;;;10.77;;
6089;SDS011;3073;42.660;23.316;2023-06-22T08:28:18;13.60;;;10.13;;
6089;SDS011;3073;42.660;23.316;2023-06-22T08:30:45;14.35;;;10.55;;
6089;SDS011;3073;42.660;23.316;2023-06-22T08:33:12;12.98;;;9.15;;
6089;SDS011;3073;42.660;23.316;2023-06-22T08:35:39;15.13;;;9.98;;
6089;SDS011;3073;42.660;23.316;2023-06-22T08:38:07;12.95;;;10.23;;
6089;SDS011;3073;42.660;23.316;2023-06-22T08:40:34;20.92;;;10.75;;
6089;SDS011;3073;42.660;23.316;2023-06-22T08:43:00;15.55;;;10.10;;
6089;SDS011;3073;42.660;23.316;2023-06-22T08:45:27;9.73;;;8.60;;
6089;SDS011;3073;42.660;23.316;2023-06-22T08:47:54;12.48;;;10.05;;
6089;SDS011;3073;42.660;23.316;2023-06-22T08:50:21;14.70;;;9.23;;
6089;SDS011;3073;42.660;23.316;2023-06-22T08:52:48;11.55;;;8.98;;
6089;SDS011;3073;42.660;23.316;2023-06-22T08:55:16;11.25;;;9.25;;
6089;SDS011;3073;42.660;23.316;2023-06-22T08:57:43;11.40;;;8.82;;
6089;SDS011;3073;42.660;23.316;2023-06-22T09:00:10;11.85;;;9.35;;
6089;SDS011;3073;42.660;23.316;2023-06-22T09:02:42;12.27;;;8.40;;
6089;SDS011;3073;42.660;23.316;2023-06-22T09:05:09;10.32;;;8.73;;
6089;SDS011;3073;42.660;23.316;2023-06-22T09:07:36;9.98;;;8.68;;
6089;SDS011;3073;42.660;23.316;2023-06-22T09:10:03;9.55;;;8.30;;
6089;SDS011;3073;42.660;23.316;2023-06-22T09:12:32;9.45;;;7.82;;
6089;SDS011;3073;42.660;23.316;2023-06-22T09:14:59;8.95;;;7.88;;
6089;SDS011;3073;42.660;23.316;2023-06-22T09:17:27;8.98;;;6.82;;
6089;SDS011;3073;42.660;23.316;2023-06-22T09:19:54;9.60;;;7.93;;
6089;SDS011;3073;42.660;23.316;2023-06-22T09:22:21;7.43;;;6.63;;
6089;SDS011;3073;42.660;23.316;2023-06-22T09:27:53;7.50;;;6.60;;
6089;SDS011;3073;42.660;23.316;2023-06-22T09:33:06;12.63;;;7.45;;
6089;SDS011;3073;42.660;23.316;2023-06-22T09:35:32;8.50;;;7.05;;
6089;SDS011;3073;42.660;23.316;2023-06-22T09:37:59;7.78;;;6.97;;
6089;SDS011;3073;42.660;23.316;2023-06-22T09:40:26;8.90;;;6.35;;
6089;SDS011;3073;42.660;23.316;2023-06-22T09:42:54;7.75;;;6.47;;
6089;SDS011;3073;42.660;23.316;2023-06-22T09:45:21;10.43;;;7.15;;
6089;SDS011;3073;42.660;23.316;2023-06-22T09:47:48;9.52;;;7.47;;
6089;SDS011;3073;42.660;23.316;2023-06-22T09:50:15;8.95;;;8.02;;
6089;SDS011;3073;42.660;23.316;2023-06-22T09:52:42;10.68;;;7.88;;
6089;SDS011;3073;42.660;23.316;2023-06-22T09:55:11;9.05;;;7.55;;
6089;SDS011;3073;42.660;23.316;2023-06-22T09:57:40;7.95;;;7.15;;
6089;SDS011;3073;42.660;23.316;2023-06-22T10:00:09;9.65;;;7.88;;
6089;SDS011;3073;42.660;23.316;2023-06-22T10:02:39;8.00;;;7.05;;
6089;SDS011;3073;42.660;23.316;2023-06-22T10:05:06;9.68;;;7.53;;
6089;SDS011;3073;42.660;23.316;2023-06-22T10:07:33;7.95;;;7.15;;
6089;SDS011;3073;42.660;23.316;2023-06-22T10:10:05;11.00;;;7.78;;
6089;SDS011;3073;42.660;23.316;2023-06-22T10:12:32;7.63;;;6.38;;
6089;SDS011;3073;42.660;23.316;2023-06-22T10:14:59;8.13;;;7.15;;
6089;SDS011;3073;42.660;23.316;2023-06-22T10:17:28;10.00;;;7.35;;
6089;SDS011;3073;42.660;23.316;2023-06-22T10:19:54;8.98;;;7.68;;
6089;SDS011;3073;42.660;23.316;2023-06-22T10:22:21;12.93;;;7.65;;
6089;SDS011;3073;42.660;23.316;2023-06-22T10:24:48;11.38;;;7.32;;
6089;SDS011;3073;42.660;23.316;2023-06-22T10:27:15;8.43;;;6.82;;
6089;SDS011;3073;42.660;23.316;2023-06-22T10:29:42;8.23;;;7.03;;
6089;SDS011;3073;42.660;23.316;2023-06-22T10:32:09;9.13;;;7.18;;
6089;SDS011;3073;42.660;23.316;2023-06-22T10:34:37;9.13;;;7.70;;
6089;SDS011;3073;42.660;23.316;2023-06-22T10:37:04;10.95;;;7.40;;
6089;SDS011;3073;42.660;23.316;2023-06-22T10:39:31;9.73;;;7.15;;
6089;SDS011;3073;42.660;23.316;2023-06-22T10:41:58;21.23;;;7.90;;
6089;SDS011;3073;42.660;23.316;2023-06-22T10:44:25;9.75;;;7.82;;
6089;SDS011;3073;42.660;23.316;2023-06-22T10:46:52;8.93;;;8.02;;
6089;SDS011;3073;42.660;23.316;2023-06-22T10:49:19;12.10;;;7.75;;
6089;SDS011;3073;42.660;23.316;2023-06-22T10:51:47;11.65;;;7.82;;
6089;SDS011;3073;42.660;23.316;2023-06-22T10:54:14;11.02;;;8.50;;
6089;SDS011;3073;42.660;23.316;2023-06-22T10:56:43;10.40;;;8.45;;
6089;SDS011;3073;42.660;23.316;2023-06-22T10:59:10;10.25;;;7.88;;
6089;SDS011;3073;42.660;23.316;2023-06-22T11:01:37;15.10;;;8.15;;
6089;SDS011;3073;42.660;23.316;2023-06-22T11:04:04;10.60;;;9.23;;
6089;SDS011;3073;42.660;23.316;2023-06-22T11:06:30;8.80;;;7.25;;
6089;SDS011;3073;42.660;23.316;2023-06-22T11:08:59;10.75;;;7.80;;
6089;SDS011;3073;42.660;23.316;2023-06-22T11:11:25;10.13;;;7.53;;
6089;SDS011;3073;42.660;23.316;2023-06-22T11:13:52;11.23;;;8.25;;
6089;SDS011;3073;42.660;23.316;2023-06-22T11:16:20;11.02;;;8.52;;
6089;SDS011;3073;42.660;23.316;2023-06-22T11:18:47;10.60;;;7.95;;
6089;SDS011;3073;42.660;23.316;2023-06-22T11:21:14;9.27;;;7.45;;
6089;SDS011;3073;42.660;23.316;2023-06-22T11:23:41;10.15;;;8.30;;
6089;SDS011;3073;42.660;23.316;2023-06-22T11:26:10;9.80;;;7.30;;
6089;SDS011;3073;42.660;23.316;2023-06-22T11:28:37;12.07;;;7.80;;
6089;SDS011;3073;42.660;23.316;2023-06-22T11:31:04;9.75;;;7.07;;
6089;SDS011;3073;42.660;23.316;2023-06-22T11:33:33;11.65;;;7.88;;
6089;SDS011;3073;42.660;23.316;2023-06-22T11:36:00;9.52;;;6.18;;
6089;SDS011;3073;42.660;23.316;2023-06-22T11:38:27;10.15;;;8.55;;
6089;SDS011;3073;42.660;23.316;2023-06-22T11:40:55;12.10;;;7.55;;
6089;SDS011;3073;42.660;23.316;2023-06-22T11:43:25;10.93;;;8.07;;
6089;SDS011;3073;42.660;23.316;2023-06-22T11:45:51;11.07;;;7.60;;
6089;SDS011;3073;42.660;23.316;2023-06-22T11:48:20;9.82;;;7.57;;
6089;SDS011;3073;42.660;23.316;2023-06-22T11:50:47;9.82;;;8.05;;
6089;SDS011;3073;42.660;23.316;2023-06-22T11:53:14;9.85;;;8.05;;
6089;SDS011;3073;42.660;23.316;2023-06-22T11:55:42;9.35;;;7.93;;
6089;SDS011;3073;42.660;23.316;2023-06-22T11:58:08;12.15;;;8.55;;
6089;SDS011;3073;42.660;23.316;2023-06-22T12:00:38;11.68;;;7.85;;
6089;SDS011;3073;42.660;23.316;2023-06-22T12:03:05;15.27;;;9.48;;
6089;SDS011;3073;42.660;23.316;2023-06-22T12:05:32;13.05;;;8.30;;
6089;SDS011;3073;42.660;23.316;2023-06-22T12:07:59;11.70;;;9.60;;
6089;SDS011;3073;42.660;23.316;2023-06-22T12:10:26;11.10;;;8.05;;
6089;SDS011;3073;42.660;23.316;2023-06-22T12:12:54;11.07;;;8.48;;
6089;SDS011;3073;42.660;23.316;2023-06-22T12:15:22;15.13;;;9.52;;
6089;SDS011;3073;42.660;23.316;2023-06-22T12:17:51;12.55;;;8.88;;
6089;SDS011;3073;42.660;23.316;2023-06-22T12:20:18;10.95;;;9.40;;
6089;SDS011;3073;42.660;23.316;2023-06-22T12:23:09;17.88;;;10.18;;
6089;SDS011;3073;42.660;23.316;2023-06-22T12:25:36;12.15;;;10.05;;
6089;SDS011;3073;42.660;23.316;2023-06-22T12:28:03;15.35;;;10.82;;
6089;SDS011;3073;42.660;23.316;2023-06-22T12:30:30;18.05;;;12.05;;
6089;SDS011;3073;42.660;23.316;2023-06-22T12:32:57;14.70;;;12.25;;
6089;SDS011;3073;42.660;23.316;2023-06-22T12:35:24;19.55;;;13.40;;
6089;SDS011;3073;42.660;23.316;2023-06-22T12:37:51;13.38;;;10.65;;
6089;SDS011;3073;42.660;23.316;2023-06-22T12:40:19;13.38;;;11.40;;
6089;SDS011;3073;42.660;23.316;2023-06-22T12:42:46;17.20;;;11.07;;
6089;SDS011;3073;42.660;23.316;2023-06-22T12:45:14;16.63;;;11.98;;
6089;SDS011;3073;42.660;23.316;2023-06-22T12:47:41;17.40;;;11.68;;
6089;SDS011;3073;42.660;23.316;2023-06-22T12:50:09;20.53;;;11.40;;
6089;SDS011;3073;42.660;23.316;2023-06-22T12:52:37;15.50;;;11.50;;
6089;SDS011;3073;42.660;23.316;2023-06-22T12:55:06;17.17;;;11.67;;
6089;SDS011;3073;42.660;23.316;2023-06-22T12:57:38;20.37;;;12.30;;
6089;SDS011;3073;42.660;23.316;2023-06-22T13:00:06;17.13;;;11.90;;
6089;SDS011;3073;42.660;23.316;2023-06-22T13:02:35;15.73;;;11.00;;
6089;SDS011;3073;42.660;23.316;2023-06-22T13:05:02;13.13;;;10.93;;
6089;SDS011;3073;42.660;23.316;2023-06-22T13:07:31;21.30;;;12.90;;
6089;SDS011;3073;42.660;23.316;2023-06-22T13:09:58;26.13;;;14.97;;
6089;SDS011;3073;42.660;23.316;2023-06-22T13:12:26;20.23;;;14.43;;
6089;SDS011;3073;42.660;23.316;2023-06-22T13:14:55;20.13;;;13.03;;
6089;SDS011;3073;42.660;23.316;2023-06-22T13:17:22;23.37;;;15.13;;
6089;SDS011;3073;42.660;23.316;2023-06-22T13:19:49;20.20;;;14.80;;
6089;SDS011;3073;42.660;23.316;2023-06-22T13:22:29;21.37;;;14.33;;
6089;SDS011;3073;42.660;23.316;2023-06-22T13:24:57;23.93;;;15.40;;
6089;SDS011;3073;42.660;23.316;2023-06-22T13:27:27;22.80;;;14.70;;
6089;SDS011;3073;42.660;23.316;2023-06-22T13:29:55;21.73;;;13.63;;
6089;SDS011;3073;42.660;23.316;2023-06-22T13:32:22;22.33;;;13.17;;
6089;SDS011;3073;42.660;23.316;2023-06-22T13:34:51;23.20;;;14.33;;
6089;SDS011;3073;42.660;23.316;2023-06-22T13:37:19;19.17;;;12.73;;
6089;SDS011;3073;42.660;23.316;2023-06-22T13:39:46;17.53;;;13.70;;
6089;SDS011;3073;42.660;23.316;2023-06-22T13:42:13;20.30;;;12.63;;
6089;SDS011;3073;42.660;23.316;2023-06-22T13:44:40;17.03;;;13.00;;
6089;SDS011;3073;42.660;23.316;2023-06-22T13:47:08;19.13;;;12.57;;
6089;SDS011;3073;42.660;23.316;2023-06-22T13:49:35;22.97;;;14.10;;
6089;SDS011;3073;42.660;23.316;2023-06-22T13:52:02;19.97;;;13.57;;
6089;SDS011;3073;42.660;23.316;2023-06-22T13:54:32;17.90;;;13.43;;
6089;SDS011;3073;42.660;23.316;2023-06-22T13:56:58;19.67;;;14.20;;
6089;SDS011;3073;42.660;23.316;2023-06-22T13:59:25;19.20;;;13.83;;
6089;SDS011;3073;42.660;23.316;2023-06-22T14:01:53;22.63;;;14.63;;
6089;SDS011;3073;42.660;23.316;2023-06-22T14:04:22;23.70;;;16.20;;
6089;SDS011;3073;42.660;23.316;2023-06-22T14:06:50;24.33;;;13.93;;
6089;SDS011;3073;42.660;23.316;2023-06-22T14:09:17;19.43;;;13.03;;
6089;SDS011;3073;42.660;23.316;2023-06-22T14:11:44;21.20;;;12.13;;
6089;SDS011;3073;42.660;23.316;2023-06-22T14:14:10;16.67;;;11.40;;
6089;SDS011;3073;42.660;23.316;2023-06-22T14:16:37;17.20;;;11.90;;
6089;SDS011;3073;42.660;23.316;2023-06-22T14:19:05;18.40;;;12.40;;
6089;SDS011;3073;42.660;23.316;2023-06-22T14:21:33;16.50;;;12.50;;
6089;SDS011;3073;42.660;23.316;2023-06-22T14:24:00;22.23;;;13.00;;
6089;SDS011;3073;42.660;23.316;2023-06-22T14:26:26;21.40;;;13.33;;
6089;SDS011;3073;42.660;23.316;2023-06-22T14:28:53;18.33;;;12.23;;
6089;SDS011;3073;42.660;23.316;2023-06-22T14:31:22;18.93;;;13.40;;
6089;SDS011;3073;42.660;23.316;2023-06-22T14:33:49;18.83;;;13.03;;
6089;SDS011;3073;42.660;23.316;2023-06-22T14:36:16;20.30;;;13.20;;
6089;SDS011;3073;42.660;23.316;2023-06-22T14:38:44;17.03;;;11.60;;
6089;SDS011;3073;42.660;23.316;2023-06-22T14:41:12;17.53;;;11.03;;
6089;SDS011;3073;42.660;23.316;2023-06-22T14:43:43;14.40;;;10.97;;
6089;SDS011;3073;42.660;23.316;2023-06-22T14:46:12;18.63;;;11.97;;
6089;SDS011;3073;42.660;23.316;2023-06-22T14:48:39;15.83;;;10.37;;